createdAt,value
2022-09-25T00:02:00.905Z,100664.16
2022-09-25T00:04:27.448Z,100666.75
2022-09-25T00:06:53.853Z,100664.13
2022-09-25T00:09:23.196Z,100666.81
2022-09-25T00:11:49.756Z,100661.53
2022-09-25T00:14:16.316Z,100667.66
2022-09-25T00:16:42.894Z,100665.88
2022-09-25T00:19:35.333Z,100662.41
2022-09-25T00:22:01.765Z,100664.13
2022-09-25T00:24:28.185Z,100662.50
2022-09-25T00:26:54.621Z,100658.09
2022-09-25T00:29:21.123Z,100659.94
2022-09-25T00:31:47.534Z,100660.78
2022-09-25T00:34:14.151Z,100660.06
2022-09-25T00:36:40.808Z,100660.91
2022-09-25T00:39:07.505Z,100655.59
2022-09-25T00:41:34.360Z,100653.88
2022-09-25T00:44:02.818Z,100651.25
2022-09-25T00:46:42.863Z,100659.19
2022-09-25T00:49:24.800Z,100656.56
2022-09-25T00:52:03.191Z,100656.56
2022-09-25T00:54:36.466Z,100666.31
2022-09-25T00:57:08.735Z,100665.38
2022-09-25T00:59:41.084Z,100669.75
2022-09-25T01:02:13.990Z,100670.69
2022-09-25T01:04:42.649Z,100670.72
2022-09-25T01:07:10.543Z,100672.44
2022-09-25T01:09:37.051Z,100674.28
2022-09-25T01:12:04.223Z,100675.13
2022-09-25T01:14:34.076Z,100670.78
2022-09-25T01:17:16.332Z,100670.72
2022-09-25T01:20:07.463Z,100671.69
2022-09-25T01:22:55.281Z,100668.28
2022-09-25T01:25:45.581Z,100663.91
2022-09-25T01:28:18.164Z,100662.19
2022-09-25T01:30:50.316Z,100665.72
2022-09-25T01:33:23.956Z,100664.06
2022-09-25T01:36:05.498Z,100665.88
2022-09-25T01:38:38.513Z,100669.28
2022-09-25T01:41:16.566Z,100672.81
2022-09-25T01:44:02.524Z,100672.88
2022-09-25T01:46:35.069Z,100666.69
2022-09-25T01:49:22.312Z,100676.41
2022-09-25T01:51:55.966Z,100677.31
2022-09-25T01:54:30.372Z,100681.75
2022-09-25T01:57:18.476Z,100678.22
2022-09-25T01:59:57.947Z,100677.41
2022-09-25T02:02:35.127Z,100684.41
2022-09-25T02:05:12.337Z,100689.78
2022-09-25T02:07:45.510Z,100685.53
2022-09-25T02:10:17.625Z,100684.72
2022-09-25T02:12:47.792Z,100679.47
2022-09-25T02:15:20.033Z,100667.50
2022-09-25T02:18:26.280Z,100685.09
2022-09-25T02:21:12.396Z,100683.53
2022-09-25T02:23:47.967Z,100685.16
2022-09-25T02:26:34.636Z,100676.41
2022-09-25T02:29:02.665Z,100678.84
2022-09-25T02:31:38.881Z,100685.09
2022-09-25T02:34:08.187Z,100678.94
2022-09-25T02:36:37.108Z,100680.75
2022-09-25T02:39:05.793Z,100680.75
2022-09-25T02:41:49.572Z,100680.00
2022-09-25T02:44:53.717Z,100671.97
2022-09-25T02:47:39.108Z,100691.31
2022-09-25T02:50:30.311Z,100686.00
2022-09-25T02:53:18.798Z,100680.91
2022-09-25T02:56:03.777Z,100675.00
2022-09-25T02:58:36.926Z,100676.81
2022-09-25T03:01:06.748Z,100675.91
2022-09-25T03:03:34.593Z,100684.59
2022-09-25T03:06:03.612Z,100677.63
2022-09-25T03:08:39.482Z,100676.78
2022-09-25T03:11:07.886Z,100676.00
2022-09-25T03:13:35.147Z,100677.63
2022-09-25T03:16:23.368Z,100683.75
2022-09-25T03:18:49.817Z,100688.03
2022-09-25T03:21:16.261Z,100686.31
2022-09-25T03:23:42.721Z,100693.50
2022-09-25T03:26:09.151Z,100690.00
2022-09-25T03:28:35.791Z,100684.88
2022-09-25T03:31:04.060Z,100694.47
2022-09-25T03:33:34.782Z,100690.13
2022-09-25T03:36:10.917Z,100695.47
2022-09-25T03:38:38.939Z,100698.09
2022-09-25T03:41:09.406Z,100698.09
2022-09-25T03:43:37.654Z,100696.28
2022-09-25T03:46:11.428Z,100694.56
2022-09-25T03:48:38.962Z,100691.13
2022-09-25T03:51:06.280Z,100680.88
2022-09-25T03:53:33.711Z,100686.13
2022-09-25T03:56:06.013Z,100689.34
2022-09-25T03:58:32.670Z,100689.34
2022-09-25T04:00:59.197Z,100682.50
2022-09-25T04:03:29.584Z,100694.66
2022-09-25T04:05:57.994Z,100687.66
2022-09-25T04:08:27.057Z,100688.50
2022-09-25T04:10:59.509Z,100693.75
2022-09-25T04:13:29.843Z,100693.94
2022-09-25T04:15:57.719Z,100691.28
2022-09-25T04:18:25.396Z,100698.16
2022-09-25T04:20:51.950Z,100689.56
2022-09-25T04:23:18.496Z,100685.03
2022-09-25T04:25:45.756Z,100680.78
2022-09-25T04:28:12.314Z,100678.97
2022-09-25T04:30:38.752Z,100686.84
2022-09-25T04:33:23.822Z,100681.69
2022-09-25T04:35:50.316Z,100682.78
2022-09-25T04:38:17.084Z,100681.97
2022-09-25T04:40:45.824Z,100680.25
2022-09-25T04:43:12.390Z,100681.38
2022-09-25T04:45:39.061Z,100685.75
2022-09-25T04:48:05.677Z,100689.28
2022-09-25T04:50:33.326Z,100694.50
2022-09-25T04:53:00.893Z,100698.13
2022-09-25T04:55:27.718Z,100704.31
2022-09-25T04:57:59.539Z,100707.09
2022-09-25T05:00:29.715Z,100710.66
2022-09-25T05:02:56.687Z,100701.88
2022-09-25T05:05:30.402Z,100698.41
2022-09-25T05:08:01.528Z,100707.34
2022-09-25T05:10:31.268Z,100706.59
2022-09-25T05:12:59.560Z,100706.59
2022-09-25T05:15:28.351Z,100698.72
2022-09-25T05:18:00.985Z,100697.03
2022-09-25T05:20:27.546Z,100700.50
2022-09-25T05:22:56.410Z,100694.66
2022-09-25T05:25:23.419Z,100699.00
2022-09-25T05:27:50.689Z,100694.72
2022-09-25T05:30:17.580Z,100696.44
2022-09-25T05:32:49.368Z,100690.31
2022-09-25T05:35:20.606Z,100685.06
2022-09-25T05:37:47.607Z,100692.06
2022-09-25T05:40:15.717Z,100693.84
2022-09-25T05:42:46.791Z,100700.00
2022-09-25T05:45:18.123Z,100694.75
2022-09-25T05:47:44.997Z,100691.44
2022-09-25T05:50:14.022Z,100699.53
2022-09-25T05:52:40.768Z,100700.50
2022-09-25T05:55:08.420Z,100701.53
2022-09-25T05:57:35.927Z,100703.13
2022-09-25T06:00:06.038Z,100709.19
2022-09-25T06:02:32.504Z,100697.91
2022-09-25T06:04:59.107Z,100708.38
2022-09-25T06:07:25.519Z,100703.13
2022-09-25T06:09:51.950Z,100712.72
2022-09-25T06:12:18.538Z,100701.34
2022-09-25T06:14:44.984Z,100704.84
2022-09-25T06:17:12.553Z,100710.09
2022-09-25T06:19:39.107Z,100716.31
2022-09-25T06:22:05.731Z,100710.97
2022-09-25T06:24:32.124Z,100717.06
2022-09-25T06:26:58.549Z,100712.69
2022-09-25T06:29:25.041Z,100718.66
2022-09-25T06:31:52.222Z,100720.63
2022-09-25T06:34:19.195Z,100716.22
2022-09-25T06:36:45.710Z,100718.63
2022-09-25T06:39:12.115Z,100725.41
2022-09-25T06:41:38.972Z,100728.75
2022-09-25T06:44:06.809Z,100727.81
2022-09-25T06:46:33.333Z,100727.66
2022-09-25T06:48:59.790Z,100725.06
2022-09-25T06:51:32.345Z,100728.53
2022-09-25T06:53:58.901Z,100736.41
2022-09-25T06:56:25.696Z,100739.81
2022-09-25T06:58:52.390Z,100735.41
2022-09-25T07:01:19.087Z,100737.19
2022-09-25T07:03:45.727Z,100738.09
2022-09-25T07:06:18.045Z,100726.69
2022-09-25T07:08:45.021Z,100735.41
2022-09-25T07:11:20.231Z,100730.94
2022-09-25T07:13:47.864Z,100743.91
2022-09-25T07:16:17.086Z,100740.38
2022-09-25T07:18:45.012Z,100742.09
2022-09-25T07:21:14.175Z,100737.69
2022-09-25T07:23:42.119Z,100746.31
2022-09-25T07:26:18.062Z,100738.38
2022-09-25T07:28:44.626Z,100749.78
2022-09-25T07:31:19.849Z,100752.25
2022-09-25T07:33:47.302Z,100753.91
2022-09-25T07:36:15.039Z,100755.59
2022-09-25T07:38:41.713Z,100752.09
2022-09-25T07:41:13.425Z,100752.19
2022-09-25T07:43:40.346Z,100757.44
2022-09-25T07:46:07.098Z,100747.03
2022-09-25T07:48:33.610Z,100752.19
2022-09-25T07:51:01.679Z,100745.19
2022-09-25T07:53:28.705Z,100755.59
2022-09-25T07:56:06.595Z,100747.63
2022-09-25T07:58:35.579Z,100761.56
2022-09-25T08:01:04.705Z,100754.50
2022-09-25T08:03:31.422Z,100755.25
2022-09-25T08:06:10.468Z,100743.94
2022-09-25T08:08:37.283Z,100749.13
2022-09-25T08:11:08.887Z,100747.38
2022-09-25T08:13:38.126Z,100752.53
2022-09-25T08:16:06.100Z,100754.25
2022-09-25T08:18:33.023Z,100766.38
2022-09-25T08:21:03.739Z,100767.19
2022-09-25T08:23:30.875Z,100764.53
2022-09-25T08:25:57.782Z,100759.97
2022-09-25T08:28:24.216Z,100758.16
2022-09-25T08:30:51.008Z,100755.38
2022-09-25T08:33:17.552Z,100758.88
2022-09-25T08:35:44.266Z,100759.53
2022-09-25T08:38:13.470Z,100763.06
2022-09-25T08:40:56.256Z,100756.84
2022-09-25T08:43:25.338Z,100751.50
2022-09-25T08:46:12.179Z,100750.38
2022-09-25T08:49:05.919Z,100744.00
2022-09-25T08:51:44.238Z,100751.56
2022-09-25T08:54:20.797Z,100751.47
2022-09-25T08:56:54.619Z,100759.44
2022-09-25T08:59:31.778Z,100755.97
2022-09-25T09:02:11.290Z,100749.78
2022-09-25T09:04:44.576Z,100752.88
2022-09-25T09:07:27.202Z,100753.78
2022-09-25T09:10:16.476Z,100759.00
2022-09-25T09:12:47.097Z,100757.56
2022-09-25T09:15:37.508Z,100755.78
2022-09-25T09:18:24.865Z,100764.47
2022-09-25T09:20:54.152Z,100745.81
2022-09-25T09:23:23.414Z,100750.84
2022-09-25T09:26:05.065Z,100745.63
2022-09-25T09:29:01.809Z,100757.78
2022-09-25T09:31:50.058Z,100748.25
2022-09-25T09:34:52.972Z,100751.59
2022-09-25T09:37:31.551Z,100744.56
2022-09-25T09:40:15.406Z,100741.72
2022-09-25T09:43:22.212Z,100739.66
2022-09-25T09:45:58.941Z,100742.28
2022-09-25T09:48:44.514Z,100738.78
2022-09-25T09:51:22.215Z,100743.69
2022-09-25T09:53:54.423Z,100739.53
2022-09-25T09:56:35.755Z,100728.44
2022-09-25T09:59:24.303Z,100736.44
2022-09-25T10:02:01.169Z,100730.31
2022-09-25T10:04:34.115Z,100738.38
2022-09-25T10:07:08.461Z,100740.78
2022-09-25T10:09:37.183Z,100746.31
2022-09-25T10:12:15.480Z,100740.78
2022-09-25T10:14:47.254Z,100742.63
2022-09-25T10:17:15.630Z,100735.91
2022-09-25T10:19:53.828Z,100747.66
2022-09-25T10:22:23.963Z,100747.03
2022-09-25T10:24:58.525Z,100738.59
2022-09-25T10:27:31.433Z,100741.28
2022-09-25T10:30:21.855Z,100731.53
2022-09-25T10:32:57.294Z,100725.34
2022-09-25T10:35:28.994Z,100730.53
2022-09-25T10:37:58.297Z,100728.31
2022-09-25T10:40:35.720Z,100741.94
2022-09-25T10:43:15.006Z,100724.31
2022-09-25T10:45:41.621Z,100729.22
2022-09-25T10:48:54.441Z,100730.81
2022-09-25T10:51:21.667Z,100722.25
2022-09-25T10:54:15.351Z,100725.38
2022-09-25T10:56:42.430Z,100729.03
2022-09-25T10:59:21.072Z,100727.75
2022-09-25T11:01:51.064Z,100733.28
2022-09-25T11:04:22.185Z,100722.84
2022-09-25T11:06:58.129Z,100722.69
2022-09-25T11:09:29.945Z,100711.22
2022-09-25T11:12:22.115Z,100711.28
2022-09-25T11:14:57.988Z,100715.63
2022-09-25T11:17:39.744Z,100708.28
2022-09-25T11:20:16.403Z,100720.88
2022-09-25T11:23:06.332Z,100717.38
2022-09-25T11:25:46.745Z,100716.56
2022-09-25T11:28:27.304Z,100717.06
2022-09-25T11:31:03.003Z,100712.88
2022-09-25T11:33:49.026Z,100705.94
2022-09-25T11:36:33.232Z,100697.66
2022-09-25T11:39:25.969Z,100713.50
2022-09-25T11:42:21.310Z,100697.09
2022-09-25T11:45:14.795Z,100700.31
2022-09-25T11:47:47.735Z,100699.53
2022-09-25T11:50:17.002Z,100691.97
2022-09-25T11:53:29.517Z,100687.78
2022-09-25T11:56:32.835Z,100689.44
2022-09-25T11:59:22.890Z,100694.22
2022-09-25T12:02:00.657Z,100689.00
2022-09-25T12:04:46.549Z,100691.69
2022-09-25T12:07:19.135Z,100694.31
2022-09-25T12:10:06.830Z,100680.88
2022-09-25T12:12:47.565Z,100674.09
2022-09-25T12:15:40.006Z,100698.63
2022-09-25T12:18:18.616Z,100678.69
2022-09-25T12:20:55.663Z,100675.78
2022-09-25T12:23:34.173Z,100669.25
2022-09-25T12:26:23.942Z,100672.03
2022-09-25T12:29:11.809Z,100673.97
2022-09-25T12:31:58.201Z,100675.53
2022-09-25T12:35:07.608Z,100663.78
2022-09-25T12:37:46.840Z,100662.72
2022-09-25T12:40:26.287Z,100646.13
2022-09-25T12:43:03.162Z,100650.97
2022-09-25T12:45:45.918Z,100664.13
2022-09-25T12:48:31.837Z,100655.50
2022-09-25T12:51:01.546Z,100662.47
2022-09-25T12:53:31.943Z,100643.25
2022-09-25T12:56:41.719Z,100646.88
2022-09-25T12:59:29.008Z,100644.97
2022-09-25T13:02:17.835Z,100637.28
2022-09-25T13:04:53.765Z,100630.91
2022-09-25T13:07:55.216Z,100629.22
2022-09-25T13:10:38.035Z,100621.34
2022-09-25T13:13:13.064Z,100631.59
2022-09-25T13:15:42.957Z,100623.13
2022-09-25T13:18:17.390Z,100626.22
2022-09-25T13:20:53.380Z,100621.13
2022-09-25T13:23:29.717Z,100611.56
2022-09-25T13:26:00.933Z,100628.00
2022-09-25T13:28:30.197Z,100613.53
2022-09-25T13:31:09.110Z,100607.59
2022-09-25T13:33:49.970Z,100605.22
2022-09-25T13:36:50.382Z,100599.75
2022-09-25T13:39:35.328Z,100592.72
2022-09-25T13:42:33.297Z,100596.81
2022-09-25T13:45:26.087Z,100598.22
2022-09-25T13:48:07.106Z,100589.69
2022-09-25T13:50:36.319Z,100591.00
2022-09-25T13:53:25.584Z,100586.81
2022-09-25T13:55:55.031Z,100590.41
2022-09-25T13:58:26.512Z,100586.75
2022-09-25T14:00:55.896Z,100583.56
2022-09-25T14:03:37.847Z,100587.53
2022-09-25T14:06:05.288Z,100586.94
2022-09-25T14:08:33.787Z,100586.34
2022-09-25T14:11:05.524Z,100599.00
2022-09-25T14:13:33.388Z,100595.31
2022-09-25T14:16:03.532Z,100591.63
2022-09-25T14:18:44.831Z,100582.25
2022-09-25T14:21:15.339Z,100583.38
2022-09-25T14:23:49.296Z,100581.53
2022-09-25T14:26:27.633Z,100572.03
2022-09-25T14:28:58.047Z,100576.03
2022-09-25T14:31:32.929Z,100583.41
2022-09-25T14:34:21.235Z,100581.56
2022-09-25T14:37:15.649Z,100576.47
2022-09-25T14:40:00.842Z,100566.72
2022-09-25T14:42:38.141Z,100568.56
2022-09-25T14:45:25.715Z,100565.84
2022-09-25T14:47:56.576Z,100562.44
2022-09-25T14:50:26.880Z,100561.31
2022-09-25T14:52:58.180Z,100553.53
2022-09-25T14:55:33.747Z,100553.44
2022-09-25T14:58:01.761Z,100548.84
2022-09-25T15:00:29.274Z,100556.97
2022-09-25T15:02:58.325Z,100545.53
2022-09-25T15:05:31.615Z,100552.34
2022-09-25T15:08:02.130Z,100547.06
2022-09-25T15:10:36.409Z,100552.69
2022-09-25T15:13:07.379Z,100551.03
2022-09-25T15:15:35.204Z,100556.56
2022-09-25T15:18:02.675Z,100553.22
2022-09-25T15:20:32.739Z,100555.38
2022-09-25T15:23:01.005Z,100559.97
2022-09-25T15:25:31.583Z,100555.69
2022-09-25T15:27:59.290Z,100559.41
2022-09-25T15:30:28.166Z,100542.78
2022-09-25T15:33:00.493Z,100542.09
2022-09-25T15:35:28.569Z,100544.19
2022-09-25T15:38:10.603Z,100533.66
2022-09-25T15:40:37.809Z,100539.13
2022-09-25T15:43:12.550Z,100544.47
2022-09-25T15:45:43.429Z,100540.09
2022-09-25T15:48:18.939Z,100535.72
2022-09-25T15:50:45.531Z,100527.94
2022-09-25T15:53:32.871Z,100530.81
2022-09-25T15:56:15.541Z,100532.59
2022-09-25T15:58:46.484Z,100524.88
2022-09-25T16:01:35.231Z,100524.94
2022-09-25T16:04:24.091Z,100526.75
2022-09-25T16:06:51.095Z,100528.44
2022-09-25T16:09:30.192Z,100524.13
2022-09-25T16:12:20.942Z,100528.44
2022-09-25T16:14:48.594Z,100528.38
2022-09-25T16:17:22.126Z,100531.81
2022-09-25T16:20:18.700Z,100533.72
2022-09-25T16:22:53.614Z,100525.13
2022-09-25T16:25:26.448Z,100530.56
2022-09-25T16:28:00.235Z,100535.09
2022-09-25T16:30:27.135Z,100543.91
2022-09-25T16:32:56.326Z,100539.44
2022-09-25T16:35:44.972Z,100539.44
2022-09-25T16:38:31.233Z,100534.81
2022-09-25T16:41:19.332Z,100527.69
2022-09-25T16:43:46.573Z,100547.06
2022-09-25T16:46:16.300Z,100541.00
2022-09-25T16:48:45.079Z,100543.78
2022-09-25T16:51:23.163Z,100530.75
2022-09-25T16:53:50.677Z,100543.13
2022-09-25T16:56:22.335Z,100542.34
2022-09-25T16:58:49.711Z,100537.16
2022-09-25T17:01:16.977Z,100537.44
2022-09-25T17:03:49.958Z,100550.69
2022-09-25T17:06:21.746Z,100549.91
2022-09-25T17:08:48.943Z,100541.31
2022-09-25T17:11:18.117Z,100548.41
2022-09-25T17:13:45.347Z,100543.28
2022-09-25T17:16:11.813Z,100545.16
2022-09-25T17:18:38.318Z,100540.06
2022-09-25T17:21:11.594Z,100541.88
2022-09-25T17:23:38.247Z,100543.72
2022-09-25T17:26:07.579Z,100533.22
2022-09-25T17:28:34.014Z,100531.66
2022-09-25T17:31:01.257Z,100531.69
2022-09-25T17:33:28.270Z,100535.28
2022-09-25T17:36:01.122Z,100533.69
2022-09-25T17:38:27.603Z,100534.69
2022-09-25T17:40:56.693Z,100538.31
2022-09-25T17:43:25.023Z,100542.78
2022-09-25T17:45:56.559Z,100543.72
2022-09-25T17:48:28.540Z,100545.56
2022-09-25T17:50:59.798Z,100546.53
2022-09-25T17:53:29.519Z,100544.84
2022-09-25T17:55:57.123Z,100545.03
2022-09-25T17:58:24.855Z,100542.53
2022-09-25T18:00:53.085Z,100545.34
2022-09-25T18:03:21.028Z,100542.88
2022-09-25T18:05:47.944Z,100541.22
2022-09-25T18:08:15.258Z,100534.38
2022-09-25T18:10:42.025Z,100538.03
2022-09-25T18:13:13.870Z,100544.41
2022-09-25T18:15:53.845Z,100550.84
2022-09-25T18:18:20.821Z,100551.00
2022-09-25T18:21:09.105Z,100546.75
2022-09-25T18:23:37.930Z,100543.38
2022-09-25T18:26:07.201Z,100545.13
2022-09-25T18:28:33.895Z,100547.16
2022-09-25T18:31:00.492Z,100543.59
2022-09-25T18:33:27.064Z,100540.13
2022-09-25T18:35:54.065Z,100542.81
2022-09-25T18:38:21.065Z,100538.41
2022-09-25T18:40:47.746Z,100535.78
2022-09-25T18:43:14.262Z,100531.53
2022-09-25T18:45:42.312Z,100542.03
2022-09-25T18:48:09.070Z,100538.50
2022-09-25T18:50:35.715Z,100536.72
2022-09-25T18:53:02.198Z,100530.53
2022-09-25T18:55:29.660Z,100535.78
2022-09-25T18:57:57.230Z,100531.44
2022-09-25T19:00:23.675Z,100524.44
2022-09-25T19:02:50.265Z,100525.34
2022-09-25T19:05:17.407Z,100526.31
2022-09-25T19:07:43.890Z,100530.72
2022-09-25T19:10:10.879Z,100530.84
2022-09-25T19:12:37.363Z,100523.94
2022-09-25T19:15:04.887Z,100531.88
2022-09-25T19:17:32.115Z,100515.31
2022-09-25T19:19:59.016Z,100532.00
2022-09-25T19:22:25.496Z,100526.06
2022-09-25T19:24:52.760Z,100526.25
2022-09-25T19:27:19.703Z,100526.25
2022-09-25T19:29:46.803Z,100526.25
2022-09-25T19:32:15.292Z,100512.19
2022-09-25T19:34:41.874Z,100520.88
2022-09-25T19:37:08.684Z,100513.06
2022-09-25T19:39:55.551Z,100520.06
2022-09-25T19:42:23.415Z,100514.94
2022-09-25T19:44:49.960Z,100521.16
2022-09-25T19:47:16.658Z,100515.91
2022-09-25T19:49:43.089Z,100521.22
2022-09-25T19:52:09.606Z,100512.53
2022-09-25T19:54:36.259Z,100496.88
2022-09-25T19:57:02.808Z,100498.72
2022-09-25T19:59:29.332Z,100497.13
2022-09-25T20:01:55.985Z,100495.41
2022-09-25T20:04:22.501Z,100489.25
2022-09-25T20:06:48.964Z,100492.91
2022-09-25T20:09:15.770Z,100497.41
2022-09-25T20:11:42.633Z,100491.34
2022-09-25T20:14:09.130Z,100492.50
2022-09-25T20:16:37.469Z,100491.69
2022-09-25T20:19:06.360Z,100485.00
2022-09-25T20:21:38.147Z,100493.06
2022-09-25T20:24:06.873Z,100493.28
2022-09-25T20:26:35.873Z,100503.22
2022-09-25T20:29:12.190Z,100493.63
2022-09-25T20:31:41.089Z,100488.50
2022-09-25T20:34:10.800Z,100487.69
2022-09-25T20:36:38.973Z,100480.78
2022-09-25T20:39:05.773Z,100477.50
2022-09-25T20:41:33.314Z,100485.34
2022-09-25T20:43:59.789Z,100480.19
2022-09-25T20:46:26.934Z,100474.94
2022-09-25T20:48:57.480Z,100474.25
2022-09-25T20:51:27.429Z,100470.84
2022-09-25T20:53:59.526Z,100468.25
2022-09-25T20:56:27.707Z,100468.34
2022-09-25T20:58:55.671Z,100479.16
2022-09-25T21:01:25.603Z,100468.41
2022-09-25T21:03:53.267Z,100477.16
2022-09-25T21:06:25.781Z,100474.50
2022-09-25T21:08:54.116Z,100471.06
2022-09-25T21:11:21.868Z,100468.41
2022-09-25T21:13:55.513Z,100474.50
2022-09-25T21:16:22.620Z,100467.66
2022-09-25T21:19:00.940Z,100460.59
2022-09-25T21:21:28.864Z,100460.56
2022-09-25T21:23:56.959Z,100464.16
2022-09-25T21:26:26.305Z,100457.53
2022-09-25T21:28:54.813Z,100460.63
2022-09-25T21:31:23.793Z,100456.09
2022-09-25T21:33:52.847Z,100455.97
2022-09-25T21:36:20.240Z,100462.78
2022-09-25T21:38:46.994Z,100459.28
2022-09-25T21:41:16.537Z,100453.91
2022-09-25T21:43:44.088Z,100456.63
2022-09-25T21:46:20.054Z,100442.84
2022-09-25T21:48:51.628Z,100448.16
2022-09-25T21:51:20.151Z,100444.63
2022-09-25T21:53:47.091Z,100440.25
2022-09-25T21:56:17.115Z,100445.59
2022-09-25T21:58:44.283Z,100440.38
2022-09-25T22:01:12.003Z,100434.34
2022-09-25T22:03:41.289Z,100434.28
2022-09-25T22:06:10.845Z,100429.88
2022-09-25T22:08:41.002Z,100426.28
2022-09-25T22:11:08.514Z,100428.09
2022-09-25T22:13:37.817Z,100429.81
2022-09-25T22:16:09.796Z,100431.72
2022-09-25T22:18:54.118Z,100430.72
2022-09-25T22:21:22.770Z,100433.34
2022-09-25T22:23:49.326Z,100431.63
2022-09-25T22:26:17.298Z,100417.66
2022-09-25T22:28:44.242Z,100418.41
2022-09-25T22:31:22.908Z,100417.44
2022-09-25T22:33:54.475Z,100419.03
2022-09-25T22:36:21.492Z,100412.97
2022-09-25T22:38:47.963Z,100408.66
2022-09-25T22:41:15.398Z,100412.06
2022-09-25T22:43:42.566Z,100405.19
2022-09-25T22:46:11.132Z,100396.56
2022-09-25T22:48:38.544Z,100388.00
2022-09-25T22:51:07.882Z,100387.03
2022-09-25T22:53:35.538Z,100382.75
2022-09-25T22:56:26.215Z,100387.09
2022-09-25T22:58:58.346Z,100380.94
2022-09-25T23:01:47.621Z,100382.22
2022-09-25T23:04:19.895Z,100384.13
2022-09-25T23:06:47.033Z,100380.84
2022-09-25T23:09:16.539Z,100379.75
2022-09-25T23:11:43.430Z,100379.00
2022-09-25T23:14:17.378Z,100378.13
2022-09-25T23:16:45.128Z,100380.97
2022-09-25T23:19:12.425Z,100368.97
2022-09-25T23:21:39.168Z,100366.25
2022-09-25T23:24:08.576Z,100366.13
2022-09-25T23:26:35.025Z,100367.06
2022-09-25T23:29:02.188Z,100360.97
2022-09-25T23:31:30.337Z,100362.66
2022-09-25T23:34:00.869Z,100364.53
2022-09-25T23:36:28.915Z,100353.22
2022-09-25T23:38:58.194Z,100356.03
2022-09-25T23:41:27.456Z,100349.75
2022-09-25T23:43:55.263Z,100348.91
2022-09-25T23:46:23.940Z,100348.91
2022-09-25T23:48:51.323Z,100341.00
2022-09-25T23:51:18.846Z,100335.75
2022-09-25T23:53:46.315Z,100331.31
2022-09-25T23:56:15.418Z,100336.47
2022-09-25T23:58:42.635Z,100322.56
